sensor_id;sensor_type;location;lat;lon;timestamp;P1;durP1;ratioP1;P2;durP2;ratioP2
6243;SDS011;3155;49.940;8.450;2023-07-31T00:00:52;705.63;;;643.78;;
6243;SDS011;3155;49.940;8.450;2023-07-31T00:03:19;696.65;;;634.88;;
6243;SDS011;3155;49.940;8.450;2023-07-31T00:05:47;4.85;;;1.35;;
6243;SDS011;3155;49.940;8.450;2023-07-31T00:08:14;3.38;;;1.73;;
6243;SDS011;3155;49.940;8.450;2023-07-31T00:10:41;1.45;;;1.35;;
6243;SDS011;3155;49.940;8.450;2023-07-31T00:13:10;2.15;;;1.17;;
6243;SDS011;3155;49.940;8.450;2023-07-31T00:15:38;2.47;;;1.40;;
6243;SDS011;3155;49.940;8.450;2023-07-31T00:18:08;4.57;;;1.30;;
6243;SDS011;3155;49.940;8.450;2023-07-31T00:20:38;1.93;;;1.10;;
6243;SDS011;3155;49.940;8.450;2023-07-31T00:23:05;1.90;;;1.07;;
6243;SDS011;3155;49.940;8.450;2023-07-31T00:25:32;3.80;;;1.30;;
6243;SDS011;3155;49.940;8.450;2023-07-31T00:27:59;3.27;;;1.30;;
6243;SDS011;3155;49.940;8.450;2023-07-31T00:30:27;1.85;;;1.30;;
6243;SDS011;3155;49.940;8.450;2023-07-31T00:32:54;3.03;;;1.47;;
6243;SDS011;3155;49.940;8.450;2023-07-31T00:35:21;1.73;;;1.30;;
6243;SDS011;3155;49.940;8.450;2023-07-31T00:37:48;3.13;;;1.35;;
6243;SDS011;3155;49.940;8.450;2023-07-31T00:40:16;2.47;;;1.02;;
6243;SDS011;3155;49.940;8.450;2023-07-31T00:42:43;3.55;;;1.50;;
6243;SDS011;3155;49.940;8.450;2023-07-31T00:45:10;3.65;;;1.33;;
6243;SDS011;3155;49.940;8.450;2023-07-31T00:47:38;3.13;;;1.10;;
6243;SDS011;3155;49.940;8.450;2023-07-31T00:50:05;8.55;;;7.22;;
6243;SDS011;3155;49.940;8.450;2023-07-31T00:52:33;24.42;;;22.73;;
6243;SDS011;3155;49.940;8.450;2023-07-31T00:55:00;116.80;;;107.63;;
6243;SDS011;3155;49.940;8.450;2023-07-31T00:57:28;2.00;;;1.40;;
6243;SDS011;3155;49.940;8.450;2023-07-31T00:59:55;1.80;;;1.30;;
6243;SDS011;3155;49.940;8.450;2023-07-31T01:02:22;5.25;;;1.50;;
6243;SDS011;3155;49.940;8.450;2023-07-31T01:04:49;64.32;;;59.47;;
6243;SDS011;3155;49.940;8.450;2023-07-31T01:10:04;4.65;;;1.48;;
6243;SDS011;3155;49.940;8.450;2023-07-31T01:12:34;2.42;;;1.30;;
6243;SDS011;3155;49.940;8.450;2023-07-31T01:15:04;3.08;;;1.60;;
6243;SDS011;3155;49.940;8.450;2023-07-31T01:17:32;2.35;;;1.30;;
6243;SDS011;3155;49.940;8.450;2023-07-31T01:20:01;2.05;;;1.20;;
6243;SDS011;3155;49.940;8.450;2023-07-31T01:25:31;8.20;;;7.20;;
6243;SDS011;3155;49.940;8.450;2023-07-31T01:28:01;3.72;;;1.45;;
6243;SDS011;3155;49.940;8.450;2023-07-31T01:30:32;2.50;;;1.38;;
6243;SDS011;3155;49.940;8.450;2023-07-31T01:33:03;3.05;;;1.30;;
6243;SDS011;3155;49.940;8.450;2023-07-31T01:35:34;6.18;;;5.50;;
6243;SDS011;3155;49.940;8.450;2023-07-31T01:38:01;36.78;;;34.28;;
6243;SDS011;3155;49.940;8.450;2023-07-31T01:40:28;3.63;;;3.33;;
6243;SDS011;3155;49.940;8.450;2023-07-31T01:42:56;3.58;;;1.45;;
6243;SDS011;3155;49.940;8.450;2023-07-31T01:45:23;3.70;;;1.30;;
6243;SDS011;3155;49.940;8.450;2023-07-31T01:47:53;1.60;;;1.20;;
6243;SDS011;3155;49.940;8.450;2023-07-31T01:50:23;2.65;;;1.35;;
6243;SDS011;3155;49.940;8.450;2023-07-31T01:52:53;4.55;;;1.55;;
6243;SDS011;3155;49.940;8.450;2023-07-31T01:55:20;3.63;;;2.00;;
6243;SDS011;3155;49.940;8.450;2023-07-31T01:57:47;5.85;;;1.73;;
6243;SDS011;3155;49.940;8.450;2023-07-31T02:00:15;3.88;;;1.63;;
6243;SDS011;3155;49.940;8.450;2023-07-31T02:02:44;1.92;;;1.42;;
6243;SDS011;3155;49.940;8.450;2023-07-31T02:05:12;60.58;;;56.15;;
6243;SDS011;3155;49.940;8.450;2023-07-31T02:07:39;196.52;;;180.98;;
6243;SDS011;3155;49.940;8.450;2023-07-31T02:10:06;110.15;;;102.35;;
6243;SDS011;3155;49.940;8.450;2023-07-31T02:12:33;3.72;;;1.63;;
6243;SDS011;3155;49.940;8.450;2023-07-31T02:15:01;2.35;;;1.70;;
6243;SDS011;3155;49.940;8.450;2023-07-31T02:17:28;2.80;;;1.50;;
6243;SDS011;3155;49.940;8.450;2023-07-31T02:19:55;2.67;;;1.40;;
6243;SDS011;3155;49.940;8.450;2023-07-31T02:22:22;3.83;;;1.80;;
6243;SDS011;3155;49.940;8.450;2023-07-31T02:24:53;3.47;;;1.40;;
6243;SDS011;3155;49.940;8.450;2023-07-31T02:27:22;4.63;;;1.45;;
6243;SDS011;3155;49.940;8.450;2023-07-31T02:29:53;4.28;;;1.45;;
6243;SDS011;3155;49.940;8.450;2023-07-31T02:32:21;3.65;;;1.52;;
6243;SDS011;3155;49.940;8.450;2023-07-31T02:34:48;4.63;;;1.48;;
6243;SDS011;3155;49.940;8.450;2023-07-31T02:37:15;4.07;;;1.70;;
6243;SDS011;3155;49.940;8.450;2023-07-31T02:39:42;3.95;;;1.58;;
6243;SDS011;3155;49.940;8.450;2023-07-31T02:42:09;2.40;;;1.48;;
6243;SDS011;3155;49.940;8.450;2023-07-31T02:44:37;6.13;;;2.00;;
6243;SDS011;3155;49.940;8.450;2023-07-31T02:47:04;5.40;;;1.48;;
6243;SDS011;3155;49.940;8.450;2023-07-31T02:49:31;5.32;;;1.48;;
6243;SDS011;3155;49.940;8.450;2023-07-31T02:51:58;3.63;;;1.55;;
6243;SDS011;3155;49.940;8.450;2023-07-31T02:54:25;5.22;;;1.65;;
6243;SDS011;3155;49.940;8.450;2023-07-31T02:56:53;6.25;;;1.75;;
6243;SDS011;3155;49.940;8.450;2023-07-31T02:59:20;3.58;;;1.45;;
6243;SDS011;3155;49.940;8.450;2023-07-31T03:01:47;5.53;;;1.70;;
6243;SDS011;3155;49.940;8.450;2023-07-31T03:04:15;5.85;;;1.60;;
6243;SDS011;3155;49.940;8.450;2023-07-31T03:06:44;3.28;;;1.38;;
6243;SDS011;3155;49.940;8.450;2023-07-31T03:09:11;3.03;;;1.40;;
6243;SDS011;3155;49.940;8.450;2023-07-31T03:11:38;4.82;;;1.60;;
6243;SDS011;3155;49.940;8.450;2023-07-31T03:14:05;6.67;;;1.60;;
6243;SDS011;3155;49.940;8.450;2023-07-31T03:16:36;3.30;;;2.10;;
6243;SDS011;3155;49.940;8.450;2023-07-31T03:19:03;5.88;;;1.70;;
6243;SDS011;3155;49.940;8.450;2023-07-31T03:21:30;2.13;;;1.17;;
6243;SDS011;3155;49.940;8.450;2023-07-31T03:23:58;12.85;;;1.80;;
6243;SDS011;3155;49.940;8.450;2023-07-31T03:26:27;3.83;;;1.52;;
6243;SDS011;3155;49.940;8.450;2023-07-31T03:28:56;6.03;;;1.70;;
6243;SDS011;3155;49.940;8.450;2023-07-31T03:31:23;2.85;;;1.50;;
6243;SDS011;3155;49.940;8.450;2023-07-31T03:33:50;3.87;;;1.40;;
6243;SDS011;3155;49.940;8.450;2023-07-31T03:36:17;3.70;;;2.13;;
6243;SDS011;3155;49.940;8.450;2023-07-31T03:38:45;6.37;;;1.97;;
6243;SDS011;3155;49.940;8.450;2023-07-31T03:41:12;3.63;;;1.50;;
6243;SDS011;3155;49.940;8.450;2023-07-31T03:43:40;4.00;;;1.70;;
6243;SDS011;3155;49.940;8.450;2023-07-31T03:46:07;49.70;;;46.17;;
6243;SDS011;3155;49.940;8.450;2023-07-31T03:48:34;5.73;;;5.23;;
6243;SDS011;3155;49.940;8.450;2023-07-31T03:51:01;4.57;;;1.70;;
6243;SDS011;3155;49.940;8.450;2023-07-31T03:53:28;3.38;;;1.77;;
6243;SDS011;3155;49.940;8.450;2023-07-31T03:55:55;7.83;;;2.03;;
6243;SDS011;3155;49.940;8.450;2023-07-31T03:58:23;3.23;;;1.60;;
6243;SDS011;3155;49.940;8.450;2023-07-31T04:00:53;5.03;;;1.80;;
6243;SDS011;3155;49.940;8.450;2023-07-31T04:03:20;3.40;;;1.67;;
6243;SDS011;3155;49.940;8.450;2023-07-31T04:05:47;4.60;;;1.73;;
6243;SDS011;3155;49.940;8.450;2023-07-31T04:08:15;3.83;;;1.73;;
6243;SDS011;3155;49.940;8.450;2023-07-31T04:10:42;4.15;;;1.70;;
6243;SDS011;3155;49.940;8.450;2023-07-31T04:13:09;4.40;;;1.77;;
6243;SDS011;3155;49.940;8.450;2023-07-31T04:15:36;3.80;;;1.77;;
6243;SDS011;3155;49.940;8.450;2023-07-31T04:18:04;7.18;;;1.70;;
6243;SDS011;3155;49.940;8.450;2023-07-31T04:20:32;3.95;;;1.50;;
6243;SDS011;3155;49.940;8.450;2023-07-31T04:22:59;5.25;;;1.75;;
6243;SDS011;3155;49.940;8.450;2023-07-31T04:25:26;1.85;;;1.50;;
6243;SDS011;3155;49.940;8.450;2023-07-31T04:27:54;4.95;;;1.77;;
6243;SDS011;3155;49.940;8.450;2023-07-31T04:30:22;2.70;;;1.60;;
6243;SDS011;3155;49.940;8.450;2023-07-31T04:32:49;4.67;;;1.80;;
6243;SDS011;3155;49.940;8.450;2023-07-31T04:35:16;7.77;;;1.87;;
6243;SDS011;3155;49.940;8.450;2023-07-31T04:37:47;2.88;;;1.58;;
6243;SDS011;3155;49.940;8.450;2023-07-31T04:40:18;5.30;;;1.80;;
6243;SDS011;3155;49.940;8.450;2023-07-31T04:42:45;9.27;;;2.40;;
6243;SDS011;3155;49.940;8.450;2023-07-31T04:45:14;3.80;;;1.70;;
6243;SDS011;3155;49.940;8.450;2023-07-31T04:47:44;8.13;;;1.83;;
6243;SDS011;3155;49.940;8.450;2023-07-31T04:50:12;3.63;;;1.60;;
6243;SDS011;3155;49.940;8.450;2023-07-31T04:52:39;4.82;;;1.80;;
6243;SDS011;3155;49.940;8.450;2023-07-31T04:55:06;4.82;;;1.75;;
6243;SDS011;3155;49.940;8.450;2023-07-31T04:57:33;4.38;;;1.77;;
6243;SDS011;3155;49.940;8.450;2023-07-31T05:00:00;2.53;;;1.48;;
6243;SDS011;3155;49.940;8.450;2023-07-31T05:02:31;5.05;;;1.95;;
6243;SDS011;3155;49.940;8.450;2023-07-31T05:04:58;3.05;;;1.60;;
6243;SDS011;3155;49.940;8.450;2023-07-31T05:07:25;3.15;;;1.73;;
6243;SDS011;3155;49.940;8.450;2023-07-31T05:09:52;4.35;;;1.58;;
6243;SDS011;3155;49.940;8.450;2023-07-31T05:12:23;4.78;;;1.83;;
6243;SDS011;3155;49.940;8.450;2023-07-31T05:14:50;3.17;;;1.70;;
6243;SDS011;3155;49.940;8.450;2023-07-31T05:17:18;5.60;;;1.77;;
6243;SDS011;3155;49.940;8.450;2023-07-31T05:19:45;3.72;;;1.75;;
6243;SDS011;3155;49.940;8.450;2023-07-31T05:22:12;3.85;;;1.80;;
6243;SDS011;3155;49.940;8.450;2023-07-31T05:24:39;2.70;;;1.60;;
6243;SDS011;3155;49.940;8.450;2023-07-31T05:27:06;3.97;;;3.00;;
6243;SDS011;3155;49.940;8.450;2023-07-31T05:29:34;14.65;;;13.43;;
6243;SDS011;3155;49.940;8.450;2023-07-31T05:32:01;2.63;;;2.42;;
6243;SDS011;3155;49.940;8.450;2023-07-31T05:34:28;30.60;;;28.30;;
6243;SDS011;3155;49.940;8.450;2023-07-31T05:36:56;3.00;;;1.70;;
6243;SDS011;3155;49.940;8.450;2023-07-31T05:39:23;8.10;;;1.70;;
6243;SDS011;3155;49.940;8.450;2023-07-31T05:41:50;4.88;;;1.55;;
6243;SDS011;3155;49.940;8.450;2023-07-31T05:44:17;3.00;;;1.60;;
6243;SDS011;3155;49.940;8.450;2023-07-31T05:46:44;4.17;;;1.90;;
6243;SDS011;3155;49.940;8.450;2023-07-31T05:49:12;5.30;;;2.27;;
6243;SDS011;3155;49.940;8.450;2023-07-31T05:51:39;3.60;;;1.97;;
6243;SDS011;3155;49.940;8.450;2023-07-31T05:54:06;2.77;;;2.30;;
6243;SDS011;3155;49.940;8.450;2023-07-31T05:56:33;4.75;;;1.67;;
6243;SDS011;3155;49.940;8.450;2023-07-31T05:59:01;4.28;;;2.53;;
6243;SDS011;3155;49.940;8.450;2023-07-31T06:01:29;4.22;;;2.33;;
6243;SDS011;3155;49.940;8.450;2023-07-31T06:03:56;26.33;;;24.35;;
6243;SDS011;3155;49.940;8.450;2023-07-31T06:06:23;3.08;;;1.80;;
6243;SDS011;3155;49.940;8.450;2023-07-31T06:08:52;29.60;;;27.65;;
6243;SDS011;3155;49.940;8.450;2023-07-31T06:11:20;44.53;;;41.35;;
6243;SDS011;3155;49.940;8.450;2023-07-31T06:13:50;339.10;;;308.85;;
6243;SDS011;3155;49.940;8.450;2023-07-31T06:16:17;584.55;;;530.50;;
6243;SDS011;3155;49.940;8.450;2023-07-31T06:18:45;405.52;;;366.90;;
6243;SDS011;3155;49.940;8.450;2023-07-31T06:21:15;583.63;;;529.00;;
6243;SDS011;3155;49.940;8.450;2023-07-31T06:23:42;503.30;;;453.90;;
6243;SDS011;3155;49.940;8.450;2023-07-31T06:26:09;491.17;;;442.75;;
6243;SDS011;3155;49.940;8.450;2023-07-31T06:28:39;570.33;;;515.85;;
6243;SDS011;3155;49.940;8.450;2023-07-31T06:31:06;523.65;;;472.48;;
6243;SDS011;3155;49.940;8.450;2023-07-31T06:33:34;450.42;;;405.73;;
6243;SDS011;3155;49.940;8.450;2023-07-31T06:36:01;580.70;;;525.70;;
6243;SDS011;3155;49.940;8.450;2023-07-31T06:38:34;394.88;;;357.40;;
6243;SDS011;3155;49.940;8.450;2023-07-31T06:41:03;543.38;;;491.10;;
6243;SDS011;3155;49.940;8.450;2023-07-31T06:43:41;604.58;;;548.25;;
6243;SDS011;3155;49.940;8.450;2023-07-31T06:46:09;837.25;;;763.42;;
6243;SDS011;3155;49.940;8.450;2023-07-31T06:48:37;552.92;;;501.08;;
6243;SDS011;3155;49.940;8.450;2023-07-31T06:51:04;839.97;;;765.42;;
6243;SDS011;3155;49.940;8.450;2023-07-31T06:53:33;857.58;;;779.47;;
6243;SDS011;3155;49.940;8.450;2023-07-31T06:56:00;633.70;;;576.08;;
6243;SDS011;3155;49.940;8.450;2023-07-31T06:58:28;444.38;;;402.52;;
6243;SDS011;3155;49.940;8.450;2023-07-31T07:00:55;479.98;;;433.95;;
6243;SDS011;3155;49.940;8.450;2023-07-31T07:03:22;475.52;;;429.95;;
6243;SDS011;3155;49.940;8.450;2023-07-31T07:05:49;455.10;;;411.77;;
6243;SDS011;3155;49.940;8.450;2023-07-31T07:08:17;703.22;;;640.72;;
6243;SDS011;3155;49.940;8.450;2023-07-31T07:10:53;114.28;;;105.63;;
6243;SDS011;3155;49.940;8.450;2023-07-31T07:13:21;73.00;;;67.90;;
6243;SDS011;3155;49.940;8.450;2023-07-31T07:15:48;8.57;;;1.92;;
6243;SDS011;3155;49.940;8.450;2023-07-31T07:18:19;5.10;;;1.88;;
6243;SDS011;3155;49.940;8.450;2023-07-31T07:20:49;3.13;;;1.70;;
6243;SDS011;3155;49.940;8.450;2023-07-31T07:23:16;1.75;;;1.58;;
6243;SDS011;3155;49.940;8.450;2023-07-31T07:25:44;5.32;;;1.80;;
6243;SDS011;3155;49.940;8.450;2023-07-31T07:28:14;530.50;;;481.63;;
6243;SDS011;3155;49.940;8.450;2023-07-31T07:30:42;529.50;;;480.30;;
6243;SDS011;3155;49.940;8.450;2023-07-31T07:33:12;393.38;;;357.42;;
6243;SDS011;3155;49.940;8.450;2023-07-31T07:35:45;86.82;;;80.28;;
6243;SDS011;3155;49.940;8.450;2023-07-31T07:38:13;323.20;;;294.65;;
6243;SDS011;3155;49.940;8.450;2023-07-31T07:40:41;396.83;;;360.73;;
6243;SDS011;3155;49.940;8.450;2023-07-31T07:43:08;558.42;;;510.20;;
6243;SDS011;3155;49.940;8.450;2023-07-31T07:45:35;10.68;;;9.48;;
6243;SDS011;3155;49.940;8.450;2023-07-31T07:48:02;6.13;;;2.13;;
6243;SDS011;3155;49.940;8.450;2023-07-31T07:50:30;3.80;;;1.40;;
6243;SDS011;3155;49.940;8.450;2023-07-31T07:52:58;6.55;;;4.63;;
6243;SDS011;3155;49.940;8.450;2023-07-31T07:55:28;9.38;;;8.75;;
6243;SDS011;3155;49.940;8.450;2023-07-31T07:57:57;138.77;;;128.30;;
6243;SDS011;3155;49.940;8.450;2023-07-31T08:00:24;3.33;;;1.85;;
6243;SDS011;3155;49.940;8.450;2023-07-31T08:02:51;3.15;;;1.98;;
6243;SDS011;3155;49.940;8.450;2023-07-31T08:05:19;5.10;;;2.63;;
6243;SDS011;3155;49.940;8.450;2023-07-31T08:07:46;9.52;;;8.55;;
6243;SDS011;3155;49.940;8.450;2023-07-31T08:10:13;3.20;;;2.20;;
6243;SDS011;3155;49.940;8.450;2023-07-31T08:12:40;7.72;;;7.13;;
6243;SDS011;3155;49.940;8.450;2023-07-31T08:15:07;19.27;;;17.80;;
6243;SDS011;3155;49.940;8.450;2023-07-31T08:17:35;1.90;;;1.27;;
6243;SDS011;3155;49.940;8.450;2023-07-31T08:20:05;5.05;;;3.15;;
6243;SDS011;3155;49.940;8.450;2023-07-31T08:22:32;3.38;;;3.00;;
6243;SDS011;3155;49.940;8.450;2023-07-31T08:25:00;4.30;;;1.87;;
6243;SDS011;3155;49.940;8.450;2023-07-31T08:27:30;2.08;;;1.60;;
6243;SDS011;3155;49.940;8.450;2023-07-31T08:29:57;4.93;;;2.25;;
6243;SDS011;3155;49.940;8.450;2023-07-31T08:32:24;2.80;;;1.50;;
6243;SDS011;3155;49.940;8.450;2023-07-31T08:34:51;3.30;;;1.73;;
6243;SDS011;3155;49.940;8.450;2023-07-31T08:37:19;5.35;;;4.35;;
6243;SDS011;3155;49.940;8.450;2023-07-31T08:39:46;353.95;;;323.35;;
6243;SDS011;3155;49.940;8.450;2023-07-31T08:42:13;2.20;;;1.67;;
6243;SDS011;3155;49.940;8.450;2023-07-31T08:44:40;1.90;;;1.67;;
6243;SDS011;3155;49.940;8.450;2023-07-31T08:47:08;2.90;;;1.83;;
6243;SDS011;3155;49.940;8.450;2023-07-31T08:49:35;2.08;;;1.77;;
6243;SDS011;3155;49.940;8.450;2023-07-31T08:52:04;3.47;;;1.80;;
6243;SDS011;3155;49.940;8.450;2023-07-31T08:54:31;2.37;;;1.50;;
6243;SDS011;3155;49.940;8.450;2023-07-31T08:56:59;2.33;;;1.80;;
6243;SDS011;3155;49.940;8.450;2023-07-31T08:59:31;2.22;;;1.63;;
6243;SDS011;3155;49.940;8.450;2023-07-31T09:02:03;3.80;;;1.70;;
6243;SDS011;3155;49.940;8.450;2023-07-31T09:04:34;4.60;;;1.87;;
6243;SDS011;3155;49.940;8.450;2023-07-31T09:07:02;3.78;;;2.00;;
6243;SDS011;3155;49.940;8.450;2023-07-31T09:09:31;3.78;;;1.85;;
6243;SDS011;3155;49.940;8.450;2023-07-31T09:11:58;4.40;;;2.17;;
6243;SDS011;3155;49.940;8.450;2023-07-31T09:14:26;2.60;;;1.67;;
6243;SDS011;3155;49.940;8.450;2023-07-31T09:21:54;3.50;;;1.50;;
6243;SDS011;3155;49.940;8.450;2023-07-31T09:24:24;4.00;;;2.15;;
6243;SDS011;3155;49.940;8.450;2023-07-31T09:26:53;2.60;;;1.75;;
6243;SDS011;3155;49.940;8.450;2023-07-31T09:29:21;2.33;;;1.73;;
6243;SDS011;3155;49.940;8.450;2023-07-31T09:31:51;3.40;;;1.88;;
6243;SDS011;3155;49.940;8.450;2023-07-31T09:34:18;2.50;;;1.67;;
6243;SDS011;3155;49.940;8.450;2023-07-31T09:36:47;2.95;;;1.90;;
6243;SDS011;3155;49.940;8.450;2023-07-31T09:39:15;2.53;;;1.67;;
6243;SDS011;3155;49.940;8.450;2023-07-31T09:41:43;5.40;;;1.80;;
6243;SDS011;3155;49.940;8.450;2023-07-31T09:44:11;3.05;;;2.03;;
6243;SDS011;3155;49.940;8.450;2023-07-31T09:46:38;2.70;;;2.03;;
6243;SDS011;3155;49.940;8.450;2023-07-31T09:49:10;3.03;;;1.70;;
6243;SDS011;3155;49.940;8.450;2023-07-31T09:51:38;4.38;;;1.70;;
6243;SDS011;3155;49.940;8.450;2023-07-31T09:54:09;5.15;;;2.22;;
6243;SDS011;3155;49.940;8.450;2023-07-31T09:56:41;3.40;;;2.00;;
6243;SDS011;3155;49.940;8.450;2023-07-31T09:59:10;4.15;;;1.70;;
6243;SDS011;3155;49.940;8.450;2023-07-31T10:01:38;3.42;;;2.05;;
6243;SDS011;3155;49.940;8.450;2023-07-31T10:04:07;7.80;;;2.00;;
6243;SDS011;3155;49.940;8.450;2023-07-31T10:06:35;2.80;;;2.10;;
6243;SDS011;3155;49.940;8.450;2023-07-31T10:09:05;3.17;;;1.90;;
6243;SDS011;3155;49.940;8.450;2023-07-31T10:11:34;3.50;;;1.80;;
6243;SDS011;3155;49.940;8.450;2023-07-31T10:14:03;3.58;;;2.00;;
6243;SDS011;3155;49.940;8.450;2023-07-31T10:16:31;3.28;;;2.28;;
6243;SDS011;3155;49.940;8.450;2023-07-31T10:18:59;2.95;;;1.80;;
6243;SDS011;3155;49.940;8.450;2023-07-31T10:21:27;3.13;;;2.00;;
6243;SDS011;3155;49.940;8.450;2023-07-31T10:23:54;3.40;;;1.85;;
6243;SDS011;3155;49.940;8.450;2023-07-31T10:26:22;4.70;;;1.90;;
6243;SDS011;3155;49.940;8.450;2023-07-31T10:28:50;19.35;;;2.22;;
6243;SDS011;3155;49.940;8.450;2023-07-31T10:31:19;3.53;;;1.80;;
6243;SDS011;3155;49.940;8.450;2023-07-31T10:33:47;5.38;;;2.30;;
6243;SDS011;3155;49.940;8.450;2023-07-31T10:36:20;391.90;;;356.50;;
6243;SDS011;3155;49.940;8.450;2023-07-31T10:38:50;432.23;;;394.25;;
6243;SDS011;3155;49.940;8.450;2023-07-31T10:41:17;97.63;;;88.82;;
6243;SDS011;3155;49.940;8.450;2023-07-31T10:43:47;5.60;;;3.03;;
6243;SDS011;3155;49.940;8.450;2023-07-31T10:46:15;3.10;;;1.92;;
6243;SDS011;3155;49.940;8.450;2023-07-31T10:48:42;177.27;;;160.77;;
6243;SDS011;3155;49.940;8.450;2023-07-31T10:51:12;7.40;;;5.82;;
6243;SDS011;3155;49.940;8.450;2023-07-31T10:53:40;4.82;;;4.38;;
6243;SDS011;3155;49.940;8.450;2023-07-31T10:56:08;4.40;;;2.33;;
6243;SDS011;3155;49.940;8.450;2023-07-31T10:58:39;3.10;;;1.75;;
6243;SDS011;3155;49.940;8.450;2023-07-31T11:01:11;5.88;;;2.13;;
6243;SDS011;3155;49.940;8.450;2023-07-31T11:06:12;6.80;;;1.90;;
6243;SDS011;3155;49.940;8.450;2023-07-31T11:08:49;4.65;;;2.08;;
6243;SDS011;3155;49.940;8.450;2023-07-31T11:11:20;5.30;;;2.17;;
6243;SDS011;3155;49.940;8.450;2023-07-31T11:13:53;2.47;;;1.92;;
6243;SDS011;3155;49.940;8.450;2023-07-31T11:16:24;2.70;;;1.90;;
6243;SDS011;3155;49.940;8.450;2023-07-31T11:19:08;4.57;;;1.92;;
6243;SDS011;3155;49.940;8.450;2023-07-31T11:21:38;2.97;;;1.85;;
6243;SDS011;3155;49.940;8.450;2023-07-31T11:24:06;3.25;;;1.83;;
6243;SDS011;3155;49.940;8.450;2023-07-31T11:26:33;2.13;;;1.70;;
6243;SDS011;3155;49.940;8.450;2023-07-31T11:29:00;2.28;;;1.60;;
6243;SDS011;3155;49.940;8.450;2023-07-31T11:31:28;2.83;;;1.80;;
6243;SDS011;3155;49.940;8.450;2023-07-31T11:34:04;3.92;;;2.10;;
6243;SDS011;3155;49.940;8.450;2023-07-31T11:36:31;233.43;;;211.85;;
6243;SDS011;3155;49.940;8.450;2023-07-31T11:39:05;6.95;;;6.45;;
6243;SDS011;3155;49.940;8.450;2023-07-31T11:41:33;44.85;;;41.40;;
6243;SDS011;3155;49.940;8.450;2023-07-31T11:44:00;7.22;;;6.50;;
6243;SDS011;3155;49.940;8.450;2023-07-31T11:46:46;4.75;;;4.38;;
6243;SDS011;3155;49.940;8.450;2023-07-31T11:49:14;8.43;;;7.73;;
6243;SDS011;3155;49.940;8.450;2023-07-31T11:51:42;5.03;;;2.10;;
6243;SDS011;3155;49.940;8.450;2023-07-31T11:54:09;3.47;;;2.00;;
6243;SDS011;3155;49.940;8.450;2023-07-31T11:56:39;6.20;;;5.65;;
6243;SDS011;3155;49.940;8.450;2023-07-31T11:59:06;3.95;;;1.90;;
6243;SDS011;3155;49.940;8.450;2023-07-31T12:01:34;5.32;;;2.00;;
6243;SDS011;3155;49.940;8.450;2023-07-31T12:04:02;5.18;;;2.08;;
6243;SDS011;3155;49.940;8.450;2023-07-31T12:06:35;3.33;;;1.83;;
6243;SDS011;3155;49.940;8.450;2023-07-31T12:09:07;5.03;;;1.90;;
6243;SDS011;3155;49.940;8.450;2023-07-31T12:11:43;2.42;;;2.00;;
6243;SDS011;3155;49.940;8.450;2023-07-31T12:14:20;3.92;;;1.90;;
6243;SDS011;3155;49.940;8.450;2023-07-31T12:17:24;2.00;;;1.85;;
6243;SDS011;3155;49.940;8.450;2023-07-31T12:19:45;2.90;;;2.08;;
6243;SDS011;3155;49.940;8.450;2023-07-31T12:22:13;3.17;;;1.92;;
6243;SDS011;3155;49.940;8.450;2023-07-31T12:24:41;4.18;;;2.40;;
6243;SDS011;3155;49.940;8.450;2023-07-31T12:27:14;4.15;;;1.90;;
6243;SDS011;3155;49.940;8.450;2023-07-31T12:29:41;4.30;;;2.00;;
6243;SDS011;3155;49.940;8.450;2023-07-31T12:34:46;4.03;;;2.05;;
6243;SDS011;3155;49.940;8.450;2023-07-31T12:37:14;3.00;;;2.38;;
6243;SDS011;3155;49.940;8.450;2023-07-31T12:39:41;4.88;;;2.10;;
6243;SDS011;3155;49.940;8.450;2023-07-31T12:42:08;2.67;;;1.63;;
6243;SDS011;3155;49.940;8.450;2023-07-31T12:44:35;2.40;;;1.75;;
6243;SDS011;3155;49.940;8.450;2023-07-31T12:47:03;4.53;;;3.20;;
6243;SDS011;3155;49.940;8.450;2023-07-31T12:49:30;3.45;;;1.92;;
6243;SDS011;3155;49.940;8.450;2023-07-31T12:51:58;6.22;;;1.90;;
6243;SDS011;3155;49.940;8.450;2023-07-31T12:54:25;58.42;;;54.20;;
6243;SDS011;3155;49.940;8.450;2023-07-31T12:56:54;2.40;;;2.17;;
6243;SDS011;3155;49.940;8.450;2023-07-31T12:59:24;5.53;;;2.88;;
6243;SDS011;3155;49.940;8.450;2023-07-31T13:01:54;5.80;;;2.45;;
6243;SDS011;3155;49.940;8.450;2023-07-31T13:04:24;5.05;;;2.10;;
6243;SDS011;3155;49.940;8.450;2023-07-31T13:06:51;2.90;;;2.03;;
6243;SDS011;3155;49.940;8.450;2023-07-31T13:09:18;2.35;;;1.90;;
6243;SDS011;3155;49.940;8.450;2023-07-31T13:11:45;76.33;;;69.50;;
6243;SDS011;3155;49.940;8.450;2023-07-31T13:14:12;5.65;;;2.00;;
6243;SDS011;3155;49.940;8.450;2023-07-31T13:16:40;2.92;;;1.92;;
6243;SDS011;3155;49.940;8.450;2023-07-31T13:19:07;39.67;;;35.70;;
6243;SDS011;3155;49.940;8.450;2023-07-31T13:21:35;2.50;;;2.05;;
6243;SDS011;3155;49.940;8.450;2023-07-31T13:24:02;2.67;;;2.40;;
6243;SDS011;3155;49.940;8.450;2023-07-31T13:26:30;20.90;;;19.00;;
6243;SDS011;3155;49.940;8.450;2023-07-31T13:28:58;185.63;;;170.25;;
6243;SDS011;3155;49.940;8.450;2023-07-31T13:31:25;437.48;;;399.00;;
6243;SDS011;3155;49.940;8.450;2023-07-31T13:33:52;115.00;;;104.60;;
6243;SDS011;3155;49.940;8.450;2023-07-31T13:36:19;562.97;;;510.50;;
6243;SDS011;3155;49.940;8.450;2023-07-31T13:38:46;550.70;;;500.05;;
6243;SDS011;3155;49.940;8.450;2023-07-31T13:41:14;420.97;;;382.83;;
6243;SDS011;3155;49.940;8.450;2023-07-31T13:43:41;824.33;;;747.53;;
6243;SDS011;3155;49.940;8.450;2023-07-31T13:46:11;352.80;;;321.90;;
6243;SDS011;3155;49.940;8.450;2023-07-31T13:48:38;647.97;;;590.10;;
6243;SDS011;3155;49.940;8.450;2023-07-31T13:51:05;50.00;;;45.20;;
6243;SDS011;3155;49.940;8.450;2023-07-31T13:53:32;619.77;;;562.30;;
6243;SDS011;3155;49.940;8.450;2023-07-31T13:56:00;701.20;;;638.63;;
6243;SDS011;3155;49.940;8.450;2023-07-31T13:58:27;390.15;;;354.52;;
6243;SDS011;3155;49.940;8.450;2023-07-31T14:00:54;683.13;;;617.08;;
6243;SDS011;3155;49.940;8.450;2023-07-31T14:03:24;909.05;;;815.35;;
6243;SDS011;3155;49.940;8.450;2023-07-31T14:05:52;788.50;;;717.13;;
6243;SDS011;3155;49.940;8.450;2023-07-31T14:08:19;851.93;;;766.60;;
6243;SDS011;3155;49.940;8.450;2023-07-31T14:10:46;858.90;;;783.30;;
6243;SDS011;3155;49.940;8.450;2023-07-31T14:13:14;903.30;;;818.20;;
6243;SDS011;3155;49.940;8.450;2023-07-31T14:15:41;918.50;;;827.83;;
6243;SDS011;3155;49.940;8.450;2023-07-31T14:18:09;888.90;;;797.40;;
6243;SDS011;3155;49.940;8.450;2023-07-31T14:20:37;685.67;;;622.33;;
6243;SDS011;3155;49.940;8.450;2023-07-31T14:23:04;567.20;;;514.40;;
6243;SDS011;3155;49.940;8.450;2023-07-31T14:25:37;359.48;;;328.10;;
6243;SDS011;3155;49.940;8.450;2023-07-31T14:28:07;712.92;;;648.72;;
6243;SDS011;3155;49.940;8.450;2023-07-31T14:30:34;912.47;;;812.30;;
6243;SDS011;3155;49.940;8.450;2023-07-31T14:33:04;744.55;;;678.60;;
6243;SDS011;3155;49.940;8.450;2023-07-31T14:35:34;387.07;;;352.07;;
6243;SDS011;3155;49.940;8.450;2023-07-31T14:38:05;508.52;;;462.70;;
6243;SDS011;3155;49.940;8.450;2023-07-31T14:40:32;143.65;;;132.23;;
6243;SDS011;3155;49.940;8.450;2023-07-31T14:42:59;59.42;;;55.22;;
6243;SDS011;3155;49.940;8.450;2023-07-31T14:45:26;34.53;;;31.83;;
6243;SDS011;3155;49.940;8.450;2023-07-31T14:47:54;203.30;;;186.27;;
6243;SDS011;3155;49.940;8.450;2023-07-31T14:50:21;747.20;;;682.25;;
6243;SDS011;3155;49.940;8.450;2023-07-31T14:52:49;644.08;;;586.13;;
6243;SDS011;3155;49.940;8.450;2023-07-31T14:55:16;417.77;;;379.42;;
6243;SDS011;3155;49.940;8.450;2023-07-31T14:57:43;391.67;;;355.70;;
6243;SDS011;3155;49.940;8.450;2023-07-31T15:00:11;164.43;;;150.13;;
6243;SDS011;3155;49.940;8.450;2023-07-31T15:02:38;100.68;;;92.90;;
6243;SDS011;3155;49.940;8.450;2023-07-31T15:05:06;4.82;;;1.98;;
6243;SDS011;3155;49.940;8.450;2023-07-31T15:07:33;2.47;;;1.90;;
6243;SDS011;3155;49.940;8.450;2023-07-31T15:10:01;2.47;;;2.28;;
6243;SDS011;3155;49.940;8.450;2023-07-31T15:12:28;2.35;;;1.58;;
6243;SDS011;3155;49.940;8.450;2023-07-31T15:14:56;1.60;;;1.50;;
6243;SDS011;3155;49.940;8.450;2023-07-31T15:17:23;4.40;;;4.00;;
6243;SDS011;3155;49.940;8.450;2023-07-31T15:19:50;3.10;;;2.90;;
6243;SDS011;3155;49.940;8.450;2023-07-31T15:22:17;2.67;;;0.90;;
6243;SDS011;3155;49.940;8.450;2023-07-31T15:24:45;5.40;;;4.97;;